createdAt,value
2022-10-10T00:00:52.665Z,59.07
2022-10-10T00:03:21.247Z,59.00
2022-10-10T00:05:49.275Z,59.30
2022-10-10T00:08:17.261Z,61.97
2022-10-10T00:10:46.598Z,59.80
2022-10-10T00:13:14.638Z,60.30
2022-10-10T00:15:46.774Z,59.13
2022-10-10T00:18:16.742Z,60.30
2022-10-10T00:20:44.695Z,60.97
2022-10-10T00:23:12.714Z,61.40
2022-10-10T00:25:40.708Z,61.30
2022-10-10T00:28:10.178Z,62.30
2022-10-10T00:30:38.201Z,64.97
2022-10-10T00:33:06.499Z,59.20
2022-10-10T00:35:34.585Z,59.50
2022-10-10T00:38:02.689Z,60.50
2022-10-10T00:40:30.853Z,60.80
2022-10-10T00:42:59.376Z,61.07
2022-10-10T00:45:37.708Z,60.27
2022-10-10T00:48:07.463Z,60.37
2022-10-10T00:50:38.333Z,61.67
2022-10-10T00:53:07.154Z,62.37
2022-10-10T00:55:35.962Z,61.57
2022-10-10T00:58:04.682Z,66.47
2022-10-10T01:00:34.202Z,67.73
2022-10-10T01:03:02.228Z,62.00
2022-10-10T01:05:30.674Z,61.47
2022-10-10T01:07:58.818Z,68.47
2022-10-10T01:10:27.087Z,61.60
2022-10-10T01:13:03.946Z,66.00
2022-10-10T01:15:43.294Z,63.23
2022-10-10T01:18:16.694Z,62.10
2022-10-10T01:20:57.461Z,63.30
2022-10-10T01:24:10.568Z,61.50
2022-10-10T01:27:14.567Z,61.63
2022-10-10T01:29:47.040Z,61.50
2022-10-10T01:32:17.966Z,66.03
2022-10-10T01:34:54.039Z,64.97
2022-10-10T01:37:23.774Z,64.30
2022-10-10T01:39:57.879Z,64.20
2022-10-10T01:42:31.061Z,64.67
2022-10-10T01:45:00.365Z,69.20
2022-10-10T01:47:28.372Z,65.50
2022-10-10T01:50:00.590Z,65.70
2022-10-10T01:52:37.236Z,65.20
2022-10-10T01:55:16.772Z,65.60
2022-10-10T01:57:53.978Z,63.97
2022-10-10T02:00:23.355Z,63.97
2022-10-10T02:02:55.785Z,62.00
2022-10-10T02:05:27.113Z,61.30
2022-10-10T02:07:58.477Z,64.40
2022-10-10T02:10:30.515Z,65.67
2022-10-10T02:13:00.509Z,60.80
2022-10-10T02:20:12.944Z,62.70
2022-10-10T02:22:42.654Z,67.07
2022-10-10T02:25:10.913Z,64.80
2022-10-10T02:27:41.811Z,67.00
2022-10-10T02:30:11.442Z,67.67
2022-10-10T02:32:42.207Z,73.87
2022-10-10T02:35:14.643Z,67.10
2022-10-10T02:37:43.473Z,72.40
2022-10-10T02:40:14.256Z,69.47
2022-10-10T02:42:42.910Z,69.57
2022-10-10T02:45:11.511Z,67.63
2022-10-10T02:47:39.580Z,70.23
2022-10-10T02:50:08.460Z,69.90
2022-10-10T02:52:37.818Z,70.80
2022-10-10T02:55:06.826Z,67.30
2022-10-10T02:57:34.895Z,68.70
2022-10-10T03:00:03.033Z,67.13
2022-10-10T03:02:31.740Z,67.17
2022-10-10T03:04:59.834Z,70.30
2022-10-10T03:07:27.928Z,76.27
2022-10-10T03:09:57.451Z,93.00
2022-10-10T03:12:25.568Z,96.30
2022-10-10T03:14:53.819Z,90.53
2022-10-10T03:17:21.853Z,96.27
2022-10-10T03:19:49.905Z,95.13
2022-10-10T03:22:17.935Z,113.00
2022-10-10T03:24:45.957Z,111.87
2022-10-10T03:27:15.334Z,118.60
2022-10-10T03:29:43.325Z,127.90
2022-10-10T03:32:11.384Z,157.03
2022-10-10T03:34:39.457Z,147.70
2022-10-10T03:37:07.582Z,124.43
2022-10-10T03:39:35.659Z,114.80
2022-10-10T03:42:03.749Z,116.80
2022-10-10T03:44:33.182Z,159.40
2022-10-10T03:47:01.220Z,141.23
2022-10-10T03:49:29.394Z,175.33
2022-10-10T03:51:58.385Z,215.93
2022-10-10T03:54:26.499Z,140.17
2022-10-10T03:56:54.494Z,119.33
2022-10-10T03:59:22.748Z,143.20
2022-10-10T04:01:52.176Z,140.23
2022-10-10T04:04:20.147Z,96.93
2022-10-10T04:06:48.221Z,88.63
2022-10-10T04:09:16.217Z,135.37
2022-10-10T04:11:45.668Z,142.53
2022-10-10T04:14:13.653Z,115.97
2022-10-10T04:16:41.680Z,184.20
2022-10-10T04:19:11.089Z,171.70
2022-10-10T04:21:39.054Z,207.03
2022-10-10T04:24:07.335Z,241.73
2022-10-10T04:26:35.370Z,216.23
2022-10-10T04:29:03.742Z,215.47
2022-10-10T04:31:31.717Z,214.70
2022-10-10T04:33:59.846Z,177.03
2022-10-10T04:36:29.246Z,256.10
2022-10-10T04:38:57.297Z,249.13
2022-10-10T04:41:25.476Z,267.93
2022-10-10T04:43:53.510Z,278.07
2022-10-10T04:46:21.681Z,249.90
2022-10-10T04:48:49.782Z,215.77
2022-10-10T04:51:18.508Z,310.00
2022-10-10T04:53:50.405Z,292.87
2022-10-10T04:56:18.610Z,323.60
2022-10-10T04:58:46.607Z,281.30
2022-10-10T05:01:14.616Z,358.00
2022-10-10T05:03:42.636Z,250.60
2022-10-10T05:06:10.635Z,280.37
2022-10-10T05:08:38.776Z,319.27
2022-10-10T05:11:08.339Z,247.83
2022-10-10T05:13:36.468Z,335.00
2022-10-10T05:16:04.626Z,308.40
2022-10-10T05:18:32.705Z,233.03
2022-10-10T05:21:03.653Z,231.10
2022-10-10T05:23:32.188Z,301.57
2022-10-10T05:26:00.355Z,339.93
2022-10-10T05:28:29.870Z,308.07
2022-10-10T05:30:58.171Z,399.40
2022-10-10T05:33:26.247Z,309.57
2022-10-10T05:35:54.298Z,435.03
2022-10-10T05:38:22.374Z,397.20
2022-10-10T05:40:50.448Z,361.13
2022-10-10T05:43:18.482Z,441.20
2022-10-10T05:45:47.919Z,366.07
2022-10-10T05:48:15.976Z,338.30
2022-10-10T05:50:47.935Z,341.13
2022-10-10T05:53:16.228Z,347.33
2022-10-10T05:55:44.519Z,316.83
2022-10-10T05:58:14.225Z,362.93
2022-10-10T06:00:42.615Z,422.77
2022-10-10T06:03:14.211Z,395.93
2022-10-10T06:05:42.511Z,365.53
2022-10-10T06:08:12.074Z,386.73
2022-10-10T06:10:41.861Z,372.87
2022-10-10T06:13:10.339Z,477.63
2022-10-10T06:15:38.399Z,453.07
2022-10-10T06:18:07.313Z,450.33
2022-10-10T06:20:37.507Z,385.50
2022-10-10T06:23:06.258Z,441.00
2022-10-10T06:25:40.488Z,458.93
2022-10-10T06:28:09.640Z,421.37
2022-10-10T06:30:41.081Z,364.00
2022-10-10T06:33:09.191Z,398.20
2022-10-10T06:35:42.123Z,431.07
2022-10-10T06:38:10.327Z,476.83
2022-10-10T06:40:38.439Z,480.27
2022-10-10T06:43:10.421Z,419.03
2022-10-10T06:45:39.531Z,431.70
2022-10-10T06:48:08.391Z,433.53
2022-10-10T06:50:36.909Z,367.67
2022-10-10T06:53:06.680Z,437.97
2022-10-10T06:55:34.773Z,424.87
2022-10-10T06:58:02.914Z,453.03
2022-10-10T07:00:31.032Z,443.50
2022-10-10T07:02:59.062Z,362.97
2022-10-10T07:05:27.129Z,490.20
2022-10-10T07:07:55.240Z,425.03
2022-10-10T07:10:24.760Z,389.77
2022-10-10T07:12:53.365Z,424.33
2022-10-10T07:15:21.514Z,431.60
2022-10-10T07:17:54.283Z,412.87
2022-10-10T07:20:22.562Z,391.77
2022-10-10T07:22:51.079Z,392.73
2022-10-10T07:25:19.416Z,323.27
2022-10-10T07:27:49.425Z,422.40
2022-10-10T07:30:17.790Z,419.13
2022-10-10T07:32:45.905Z,346.40
2022-10-10T07:35:14.054Z,326.63
2022-10-10T07:37:42.132Z,276.27
2022-10-10T07:40:11.071Z,278.87
2022-10-10T07:42:39.411Z,312.10
2022-10-10T07:45:12.143Z,339.23
2022-10-10T07:47:40.267Z,285.27
2022-10-10T07:50:09.508Z,288.03
2022-10-10T07:52:37.544Z,329.27
2022-10-10T07:55:06.300Z,249.73
2022-10-10T07:57:35.131Z,562.15
2022-10-10T08:00:03.896Z,303.90
2022-10-10T08:02:41.092Z,268.27
2022-10-10T08:05:09.855Z,222.43
2022-10-10T08:07:37.914Z,240.10
2022-10-10T08:10:08.291Z,213.17
2022-10-10T08:13:01.253Z,194.33
2022-10-10T08:15:33.104Z,150.27
2022-10-10T08:18:03.543Z,201.03
2022-10-10T08:20:31.659Z,184.70
2022-10-10T08:22:59.709Z,178.30
2022-10-10T08:25:27.793Z,151.53
2022-10-10T08:27:55.872Z,164.73
2022-10-10T08:30:24.003Z,188.27
2022-10-10T08:32:52.606Z,134.23
2022-10-10T08:35:22.342Z,185.87
2022-10-10T08:37:50.684Z,139.20
2022-10-10T08:40:21.296Z,171.80
2022-10-10T08:42:53.151Z,140.50
2022-10-10T08:45:23.779Z,124.67
2022-10-10T08:47:55.555Z,121.33
2022-10-10T08:50:27.020Z,134.87
2022-10-10T08:52:57.935Z,122.27
2022-10-10T08:55:33.189Z,120.93
2022-10-10T08:58:05.058Z,138.33
2022-10-10T09:00:38.008Z,107.37
2022-10-10T09:03:16.496Z,109.33
2022-10-10T09:05:52.767Z,104.03
2022-10-10T09:08:35.677Z,100.37
2022-10-10T09:11:07.377Z,95.80
2022-10-10T09:13:37.934Z,93.70
2022-10-10T09:16:09.625Z,104.07
2022-10-10T09:18:45.341Z,94.07
2022-10-10T09:21:17.302Z,95.87
2022-10-10T09:23:48.529Z,89.87
2022-10-10T09:26:18.704Z,87.77
2022-10-10T09:28:51.911Z,87.83
2022-10-10T09:31:24.909Z,87.00
2022-10-10T09:33:57.042Z,91.90
2022-10-10T09:36:31.940Z,87.40
2022-10-10T09:39:03.102Z,89.60
2022-10-10T09:41:36.114Z,92.53
2022-10-10T09:44:07.545Z,90.73
2022-10-10T09:46:35.623Z,88.17
2022-10-10T09:49:03.913Z,86.47
2022-10-10T09:51:33.863Z,87.57
2022-10-10T09:54:02.441Z,86.20
2022-10-10T09:56:33.175Z,89.03
2022-10-10T09:59:01.196Z,82.33
2022-10-10T10:01:32.674Z,81.17
2022-10-10T10:04:27.727Z,80.80
2022-10-10T10:07:06.876Z,77.40
2022-10-10T10:09:35.153Z,83.27
2022-10-10T10:12:06.139Z,80.97
2022-10-10T10:14:37.933Z,79.50
2022-10-10T10:17:07.790Z,78.03
2022-10-10T10:19:37.479Z,76.00
2022-10-10T10:22:10.368Z,80.20
2022-10-10T10:24:39.085Z,76.20
2022-10-10T10:27:11.951Z,77.60
2022-10-10T10:29:42.016Z,76.10
2022-10-10T10:32:15.844Z,78.70
2022-10-10T10:35:07.545Z,71.97
2022-10-10T10:37:44.834Z,76.37
2022-10-10T10:40:25.110Z,78.70
2022-10-10T10:43:14.019Z,74.70
2022-10-10T10:45:48.447Z,74.57
2022-10-10T10:48:24.926Z,73.30
2022-10-10T10:50:56.053Z,73.10
2022-10-10T10:53:33.721Z,73.90
2022-10-10T10:56:10.144Z,72.47
2022-10-10T10:59:30.434Z,72.80
2022-10-10T11:01:58.661Z,77.07
2022-10-10T11:05:31.145Z,70.87
2022-10-10T11:08:18.181Z,76.80
2022-10-10T11:10:54.939Z,71.00
2022-10-10T11:13:28.573Z,71.80
2022-10-10T11:16:10.818Z,70.20
2022-10-10T11:18:46.975Z,69.60
2022-10-10T11:21:17.906Z,72.57
2022-10-10T11:23:48.705Z,71.10
2022-10-10T11:26:21.819Z,69.60
2022-10-10T11:28:51.928Z,72.37
2022-10-10T11:31:24.303Z,72.07
2022-10-10T11:33:57.352Z,70.70
2022-10-10T11:36:27.779Z,72.97
2022-10-10T11:38:58.733Z,70.20
2022-10-10T11:41:33.717Z,69.77
2022-10-10T11:44:04.322Z,69.97
2022-10-10T11:46:39.840Z,71.80
2022-10-10T11:49:13.309Z,68.50
2022-10-10T11:51:46.398Z,71.90
2022-10-10T11:54:28.970Z,72.60
2022-10-10T11:57:02.657Z,69.73
2022-10-10T11:59:34.383Z,70.57
2022-10-10T12:02:04.176Z,71.10
2022-10-10T12:04:36.358Z,71.37
2022-10-10T12:07:06.809Z,72.13
2022-10-10T12:09:38.731Z,70.37
2022-10-10T12:12:13.303Z,70.47
2022-10-10T12:14:45.951Z,69.50
2022-10-10T12:20:48.237Z,69.70
2022-10-10T12:23:24.120Z,72.57
2022-10-10T12:25:52.148Z,70.40
2022-10-10T12:28:30.937Z,79.30
2022-10-10T12:31:31.221Z,70.27
2022-10-10T12:34:17.055Z,69.20
2022-10-10T12:37:11.431Z,68.63
2022-10-10T12:39:42.810Z,69.60
2022-10-10T12:42:32.500Z,71.80
2022-10-10T12:45:02.390Z,73.20
2022-10-10T12:48:03.983Z,70.00
2022-10-10T12:50:34.543Z,68.20
2022-10-10T12:53:04.085Z,68.70
2022-10-10T12:55:33.926Z,69.03
2022-10-10T12:58:03.950Z,68.10
2022-10-10T13:00:40.950Z,69.90
2022-10-10T13:03:13.799Z,68.97
2022-10-10T13:05:42.270Z,68.47
2022-10-10T13:08:16.390Z,68.80
2022-10-10T13:10:44.668Z,72.90
2022-10-10T13:13:19.268Z,68.47
2022-10-10T13:15:54.535Z,68.87
2022-10-10T13:18:34.699Z,68.33
2022-10-10T13:21:03.494Z,69.90
2022-10-10T13:23:31.955Z,68.77
2022-10-10T13:26:00.745Z,68.60
2022-10-10T13:28:29.055Z,73.13
2022-10-10T13:30:58.783Z,71.50
2022-10-10T13:33:31.942Z,73.07
2022-10-10T13:36:07.076Z,72.60
2022-10-10T13:38:35.657Z,71.07
2022-10-10T13:41:05.167Z,70.63
2022-10-10T13:43:34.357Z,77.17
2022-10-10T13:46:05.110Z,73.70
2022-10-10T13:48:40.528Z,70.90
2022-10-10T13:51:11.070Z,70.07
2022-10-10T13:53:53.492Z,69.50
2022-10-10T13:56:25.497Z,69.37
2022-10-10T13:58:55.354Z,68.07
2022-10-10T14:01:30.767Z,76.70
2022-10-10T14:04:02.969Z,69.67
2022-10-10T14:06:31.259Z,71.20
2022-10-10T14:09:08.490Z,70.40
2022-10-10T14:11:36.851Z,69.97
2022-10-10T14:14:09.584Z,69.10
2022-10-10T14:16:39.006Z,70.60
2022-10-10T14:19:17.265Z,77.43
2022-10-10T14:21:45.418Z,72.90
2022-10-10T14:24:14.765Z,71.03
2022-10-10T14:26:44.194Z,77.40
2022-10-10T14:29:13.109Z,72.30
2022-10-10T14:31:42.669Z,70.10
2022-10-10T14:34:11.507Z,74.80
2022-10-10T14:36:40.307Z,70.00
2022-10-10T14:39:08.367Z,70.80
2022-10-10T14:41:36.430Z,70.50
2022-10-10T14:44:04.416Z,74.17
2022-10-10T14:46:32.580Z,71.50
2022-10-10T14:49:01.960Z,77.93
2022-10-10T14:51:33.768Z,72.47
2022-10-10T14:54:11.018Z,70.50
2022-10-10T14:57:08.488Z,76.20
2022-10-10T14:59:49.308Z,71.67
2022-10-10T15:02:21.511Z,70.50
2022-10-10T15:04:51.211Z,68.90
2022-10-10T15:07:19.587Z,79.50
2022-10-10T15:12:38.997Z,71.50
2022-10-10T15:15:08.640Z,71.27
2022-10-10T15:17:36.696Z,85.13
2022-10-10T15:20:08.638Z,84.10
2022-10-10T15:22:37.275Z,73.57
2022-10-10T15:25:06.168Z,78.80
2022-10-10T15:27:34.302Z,76.55
2022-10-10T15:30:02.297Z,74.97
2022-10-10T15:32:30.366Z,80.50
2022-10-10T15:34:58.581Z,80.07
2022-10-10T15:37:28.559Z,99.67
2022-10-10T15:39:56.600Z,86.13
2022-10-10T15:42:24.634Z,69.83
2022-10-10T15:45:31.270Z,101.57
2022-10-10T15:48:06.230Z,72.47
2022-10-10T15:50:39.208Z,69.80
2022-10-10T15:53:30.891Z,68.67
2022-10-10T15:55:59.324Z,70.70
2022-10-10T15:58:27.436Z,76.87
2022-10-10T16:00:55.475Z,73.00
2022-10-10T16:03:23.627Z,70.73
2022-10-10T16:05:51.697Z,71.13
2022-10-10T16:08:19.896Z,71.87
2022-10-10T16:10:49.328Z,69.60
2022-10-10T16:13:17.363Z,69.20
2022-10-10T16:15:45.461Z,72.30
2022-10-10T16:18:13.623Z,71.17
2022-10-10T16:20:41.660Z,69.77
2022-10-10T16:23:09.665Z,70.40
2022-10-10T16:25:37.771Z,70.27
2022-10-10T16:28:07.441Z,68.20
2022-10-10T16:30:36.243Z,71.03
2022-10-10T16:33:09.325Z,72.30
2022-10-10T16:35:40.251Z,71.97
2022-10-10T16:38:08.338Z,74.77
2022-10-10T16:40:36.823Z,73.57
2022-10-10T16:43:05.165Z,75.00
2022-10-10T16:45:34.666Z,87.30
2022-10-10T16:48:02.659Z,91.90
2022-10-10T16:50:30.810Z,98.20
2022-10-10T16:52:59.716Z,95.20
2022-10-10T16:55:27.784Z,86.67
2022-10-10T16:57:58.765Z,89.75
2022-10-10T17:00:26.891Z,80.80
2022-10-10T17:02:56.290Z,76.43
2022-10-10T17:05:24.430Z,77.70
2022-10-10T17:07:52.495Z,79.57
2022-10-10T17:10:20.615Z,76.43
2022-10-10T17:12:48.728Z,72.17
2022-10-10T17:15:16.834Z,76.30
2022-10-10T17:17:45.008Z,71.00
2022-10-10T17:20:14.349Z,72.73
2022-10-10T17:22:49.738Z,71.00
2022-10-10T17:25:18.043Z,72.30
2022-10-10T17:27:46.341Z,74.17
2022-10-10T17:30:15.118Z,77.60
2022-10-10T17:32:43.941Z,77.20
2022-10-10T17:35:12.455Z,74.20
2022-10-10T17:37:41.921Z,74.10
2022-10-10T17:40:10.787Z,73.20
2022-10-10T17:42:38.888Z,96.30
2022-10-10T17:45:08.135Z,91.27
2022-10-10T17:47:36.466Z,84.90
2022-10-10T17:50:04.658Z,76.73
2022-10-10T17:52:33.402Z,75.77
2022-10-10T17:55:03.085Z,71.60
2022-10-10T17:57:31.414Z,78.47
2022-10-10T17:59:59.485Z,76.77
2022-10-10T18:02:27.572Z,75.33
2022-10-10T18:04:55.769Z,72.43
2022-10-10T18:07:23.857Z,72.90
2022-10-10T18:09:52.729Z,71.70
2022-10-10T18:12:22.442Z,70.90
2022-10-10T18:14:50.522Z,69.17
2022-10-10T18:17:18.632Z,72.37
2022-10-10T18:19:47.451Z,74.27
2022-10-10T18:22:15.913Z,71.60
2022-10-10T18:24:44.045Z,73.10
2022-10-10T18:27:12.223Z,73.47
2022-10-10T18:29:42.440Z,71.87
2022-10-10T18:32:10.425Z,74.00
2022-10-10T18:34:38.568Z,73.50
2022-10-10T18:37:07.186Z,70.67
2022-10-10T18:39:36.006Z,71.70
2022-10-10T18:42:04.296Z,68.63
2022-10-10T18:44:32.377Z,69.90
2022-10-10T18:47:01.788Z,71.77
2022-10-10T18:49:29.858Z,70.17
2022-10-10T18:51:57.955Z,69.50
2022-10-10T18:54:27.327Z,68.70
2022-10-10T18:56:55.330Z,72.90
2022-10-10T18:59:23.696Z,73.73
2022-10-10T19:01:52.606Z,67.60
2022-10-10T19:04:22.532Z,69.30
2022-10-10T19:06:56.226Z,72.33
2022-10-10T19:09:25.569Z,69.40
2022-10-10T19:11:53.623Z,70.83
2022-10-10T19:14:22.067Z,67.87
2022-10-10T19:16:50.097Z,71.17
2022-10-10T19:19:19.828Z,66.80
2022-10-10T19:21:50.137Z,72.30
2022-10-10T19:24:21.543Z,67.30
2022-10-10T19:26:53.192Z,67.50
2022-10-10T19:29:21.668Z,67.27
2022-10-10T19:31:49.791Z,66.77
2022-10-10T19:34:17.847Z,67.90
2022-10-10T19:36:46.020Z,72.97
2022-10-10T19:39:16.436Z,66.07
2022-10-10T19:41:44.500Z,67.27
2022-10-10T19:44:12.544Z,71.40
2022-10-10T19:46:40.672Z,68.47
2022-10-10T19:49:08.735Z,70.93
2022-10-10T19:51:36.772Z,68.10
2022-10-10T19:54:05.015Z,71.37
2022-10-10T19:56:34.384Z,72.00
2022-10-10T19:59:05.487Z,66.33
2022-10-10T20:01:33.815Z,67.70
2022-10-10T20:04:01.850Z,70.07
2022-10-10T20:06:30.128Z,72.30
2022-10-10T20:08:58.284Z,70.27
2022-10-10T20:11:26.801Z,68.87
2022-10-10T20:13:58.373Z,68.13
2022-10-10T20:16:27.555Z,68.10
2022-10-10T20:18:59.371Z,65.40
2022-10-10T20:21:31.588Z,66.17
2022-10-10T20:24:02.122Z,65.93
2022-10-10T20:26:30.629Z,67.20
2022-10-10T20:29:00.603Z,67.57
2022-10-10T20:31:30.350Z,68.87
2022-10-10T20:34:00.689Z,69.33
2022-10-10T20:36:30.150Z,67.73
2022-10-10T20:39:00.576Z,67.00
2022-10-10T20:41:31.136Z,69.20
2022-10-10T20:44:02.031Z,68.17
2022-10-10T20:46:31.045Z,66.83
2022-10-10T20:49:00.751Z,67.70
2022-10-10T20:51:29.309Z,68.97
2022-10-10T20:53:59.639Z,67.60
2022-10-10T20:56:27.952Z,66.40
2022-10-10T20:58:56.329Z,67.67
2022-10-10T21:01:27.723Z,66.90
2022-10-10T21:03:56.118Z,68.90
2022-10-10T21:06:26.686Z,69.17
2022-10-10T21:08:55.490Z,69.17
2022-10-10T21:11:24.352Z,68.10
2022-10-10T21:13:56.323Z,67.87
2022-10-10T21:16:27.522Z,67.57
2022-10-10T21:18:58.348Z,67.27
2022-10-10T21:21:27.499Z,68.37
2022-10-10T21:23:56.678Z,71.80
2022-10-10T21:26:27.056Z,71.07
2022-10-10T21:28:55.880Z,73.03
2022-10-10T21:31:26.439Z,78.37
2022-10-10T21:33:54.787Z,75.73
2022-10-10T21:36:24.237Z,75.20
2022-10-10T21:38:52.466Z,71.47
2022-10-10T21:41:21.762Z,74.17
2022-10-10T21:43:52.208Z,72.83
2022-10-10T21:46:23.367Z,73.70
2022-10-10T21:48:53.354Z,72.87
2022-10-10T21:51:21.859Z,75.90
2022-10-10T21:53:50.029Z,77.17
2022-10-10T21:56:18.706Z,76.20
2022-10-10T21:58:46.768Z,76.23
2022-10-10T22:01:16.760Z,75.07
2022-10-10T22:03:46.401Z,70.53
2022-10-10T22:06:17.308Z,66.43
2022-10-10T22:08:46.918Z,66.17
2022-10-10T22:11:16.535Z,66.53
2022-10-10T22:13:44.891Z,68.33
2022-10-10T22:16:13.164Z,67.30
2022-10-10T22:18:41.916Z,67.07
2022-10-10T22:21:11.679Z,68.17
2022-10-10T22:23:41.544Z,72.07
2022-10-10T22:26:10.582Z,70.47
2022-10-10T22:28:39.213Z,74.53
2022-10-10T22:31:08.423Z,71.30
2022-10-10T22:33:36.673Z,71.40
2022-10-10T22:36:06.049Z,75.80
2022-10-10T22:38:34.409Z,69.30
2022-10-10T22:41:03.792Z,74.47
2022-10-10T22:43:31.832Z,71.17
2022-10-10T22:45:59.868Z,71.10
2022-10-10T22:48:28.222Z,76.57
2022-10-10T22:51:00.604Z,76.00
2022-10-10T22:53:29.497Z,76.70
2022-10-10T22:55:57.625Z,77.27
2022-10-10T22:58:27.496Z,71.03
2022-10-10T23:00:55.654Z,78.20
2022-10-10T23:03:23.826Z,75.87
2022-10-10T23:05:51.802Z,83.47
2022-10-10T23:08:19.903Z,95.97
2022-10-10T23:10:48.188Z,9.03
2022-10-10T23:13:16.384Z,9.47
2022-10-10T23:15:45.783Z,3.40
2022-10-10T23:18:13.870Z,3.10
2022-10-10T23:20:41.890Z,2.93
2022-10-10T23:23:09.852Z,94.67
2022-10-10T23:25:41.399Z,6.50
2022-10-10T23:28:09.725Z,3.40
2022-10-10T23:30:39.303Z,3.23
2022-10-10T23:33:08.972Z,3.23
2022-10-10T23:35:37.562Z,3.53
2022-10-10T23:38:05.849Z,4.17
2022-10-10T23:40:34.250Z,2266.67
2022-10-10T23:43:02.590Z,2266.67
2022-10-10T23:45:31.361Z,3.83
2022-10-10T23:47:59.394Z,3.37
2022-10-10T23:50:28.760Z,4.40
2022-10-10T23:52:56.778Z,2.07
2022-10-10T23:55:24.921Z,3.87
2022-10-10T23:57:53.032Z,3.60
